createdAt,value
2022-10-22T00:15:26.857Z,100641.94
2022-10-22T00:18:58.438Z,100651.69
2022-10-22T00:22:45.375Z,100651.75
2022-10-22T01:02:18.688Z,100609.16
2022-10-22T01:15:50.623Z,100645.47
2022-10-22T01:19:47.427Z,100643.75
2022-10-22T01:24:07.662Z,100438.53
2022-10-22T01:40:09.164Z,100624.00
2022-10-22T01:43:47.584Z,100629.06
2022-10-22T01:47:22.391Z,100545.09
2022-10-22T02:02:58.275Z,100596.97
2022-10-22T02:06:39.374Z,100605.91
2022-10-22T02:10:03.183Z,100606.91
2022-10-22T02:14:03.486Z,100609.63
2022-10-22T02:29:21.587Z,100613.66
2022-10-22T02:33:29.385Z,100599.78
2022-10-22T02:37:25.644Z,100552.50
2022-10-22T02:40:55.461Z,100608.28
2022-10-22T02:52:39.068Z,100608.00
2022-10-22T03:34:47.784Z,100614.00
2022-10-22T03:42:25.441Z,100590.09
2022-10-22T03:45:33.573Z,100575.19
2022-10-22T03:48:48.331Z,100576.94
2022-10-22T03:51:56.363Z,100565.50
2022-10-22T03:55:05.785Z,100563.75
2022-10-22T03:58:21.407Z,100557.78
2022-10-22T04:01:49.623Z,100583.31
2022-10-22T04:05:25.232Z,100580.66
2022-10-22T04:08:53.654Z,100598.25
2022-10-22T04:12:21.695Z,100588.97
2022-10-22T04:15:49.333Z,100592.25
2022-10-22T04:18:59.194Z,100585.38
2022-10-22T04:22:07.458Z,100566.09
2022-10-22T04:25:22.379Z,100589.84
2022-10-22T04:28:26.787Z,100575.22
2022-10-22T04:31:41.350Z,100591.56
2022-10-22T04:34:43.515Z,100596.78
2022-10-22T04:37:59.395Z,100592.25
2022-10-22T04:41:09.576Z,100590.34
2022-10-22T04:44:37.667Z,100592.97
2022-10-22T04:47:52.470Z,100588.56
2022-10-22T04:51:00.414Z,100577.19
2022-10-22T04:54:08.838Z,100590.31
2022-10-22T04:57:17.379Z,100582.31
2022-10-22T05:08:23.450Z,100583.56
2022-10-22T05:12:02.396Z,100575.56
2022-10-22T05:15:49.419Z,100581.91
2022-10-22T05:19:22.359Z,100576.72
2022-10-22T05:23:02.194Z,100587.94
2022-10-22T05:26:30.403Z,100590.97
2022-10-22T05:30:05.698Z,100581.47
2022-10-22T05:33:35.517Z,100590.31
2022-10-22T05:37:04.047Z,100461.97
2022-10-22T05:40:52.420Z,100598.38
2022-10-22T05:44:27.363Z,100594.75
2022-10-22T05:47:49.779Z,100584.25
2022-10-22T05:51:08.372Z,100553.53
2022-10-22T05:54:23.359Z,100573.34
2022-10-22T05:57:32.009Z,100575.97
2022-10-22T06:00:47.348Z,100582.69
2022-10-22T06:03:51.576Z,100577.38
2022-10-22T06:07:07.588Z,100610.69
2022-10-22T06:10:23.461Z,100606.97
2022-10-22T06:14:18.407Z,100620.91
2022-10-22T06:18:07.167Z,100613.75
2022-10-22T06:21:36.424Z,100633.78
2022-10-22T06:25:30.379Z,100631.91
2022-10-22T06:28:39.377Z,100624.50
2022-10-22T06:31:47.367Z,100615.69
2022-10-22T06:35:19.016Z,100633.06
2022-10-22T06:38:33.400Z,100636.47
2022-10-22T06:42:01.440Z,100629.19
2022-10-22T06:45:10.554Z,100638.56
2022-10-22T06:48:18.643Z,100631.31
2022-10-22T06:51:27.478Z,100655.84
2022-10-22T06:54:42.624Z,100665.09
2022-10-22T06:57:44.746Z,100646.28
2022-10-22T07:01:22.721Z,100613.25
2022-10-22T07:05:10.442Z,100647.75
2022-10-22T07:08:53.549Z,100634.34
2022-10-22T07:24:32.938Z,100632.09
2022-10-22T07:27:41.658Z,100632.56
2022-10-22T07:30:50.237Z,100636.34
2022-10-22T07:37:47.876Z,100624.97
2022-10-22T07:41:16.474Z,100567.00
2022-10-22T07:45:10.748Z,100612.03
2022-10-22T07:48:58.402Z,100617.31
2022-10-22T07:56:52.435Z,100617.34
2022-10-22T08:00:24.604Z,100622.72
2022-10-22T08:03:34.443Z,100638.88
2022-10-22T08:06:45.812Z,100608.50
2022-10-22T08:10:03.423Z,100638.22
2022-10-22T08:13:45.641Z,100613.53
2022-10-22T08:17:32.774Z,100630.75
2022-10-22T08:21:21.028Z,100626.91
2022-10-22T08:25:09.612Z,100621.88
2022-10-22T08:28:58.448Z,100624.47
2022-10-22T08:32:54.138Z,100603.22
2022-10-22T08:40:01.432Z,100577.13
2022-10-22T08:44:18.240Z,100626.72
2022-10-22T08:48:15.870Z,100637.19
2022-10-22T08:51:50.703Z,100591.25
2022-10-22T08:55:02.404Z,100632.97
2022-10-22T09:26:20.440Z,100633.16
2022-10-22T09:29:35.632Z,100625.53
2022-10-22T09:32:50.434Z,100618.19
2022-10-22T09:35:58.526Z,100627.25
2022-10-22T09:39:43.703Z,100625.06
2022-10-22T09:43:29.346Z,100635.03
2022-10-22T09:55:20.227Z,100638.47
2022-10-22T09:59:26.488Z,100598.62
2022-10-22T10:03:03.500Z,100632.59
2022-10-22T10:06:25.206Z,100628.06
2022-10-22T10:22:25.715Z,100606.03
2022-10-22T10:54:50.544Z,100618.88
2022-10-22T10:58:36.800Z,100575.59
2022-10-22T11:06:34.252Z,100633.00
2022-10-22T11:10:20.600Z,100637.66
2022-10-22T11:18:10.203Z,100623.06
2022-10-22T11:21:55.879Z,100614.88
2022-10-22T11:25:46.666Z,100590.75
2022-10-22T11:29:32.831Z,100610.16
2022-10-22T11:33:14.266Z,100594.56
2022-10-22T11:36:49.800Z,100591.16
2022-10-22T11:40:08.655Z,100527.78
2022-10-22T11:44:13.791Z,100590.00
2022-10-22T11:56:36.467Z,100578.22
2022-10-22T11:59:51.819Z,100570.50
2022-10-22T12:03:10.758Z,100574.12
2022-10-22T12:06:22.537Z,100559.63
2022-10-22T12:09:58.494Z,100563.22
2022-10-22T12:13:23.473Z,100573.63
2022-10-22T12:17:02.523Z,100542.06
2022-10-22T12:20:20.485Z,100552.28
2022-10-22T12:23:40.467Z,100562.28
2022-10-22T12:26:55.721Z,100560.88
2022-10-22T12:29:59.657Z,100554.97
2022-10-22T12:33:26.559Z,100550.47
2022-10-22T12:36:36.472Z,100542.78
2022-10-22T12:39:52.504Z,100536.31
2022-10-22T12:42:57.648Z,100545.16
2022-10-22T12:46:18.506Z,100549.06
2022-10-22T12:49:29.519Z,100534.31
2022-10-22T12:52:38.383Z,100551.06
2022-10-22T12:55:46.490Z,100544.47
2022-10-22T13:17:46.592Z,100569.09
2022-10-22T13:29:21.674Z,100554.22
2022-10-22T13:37:04.627Z,100564.34
2022-10-22T13:48:21.522Z,100557.28
2022-10-22T13:51:33.811Z,100562.97
2022-10-22T13:54:41.500Z,100562.31
2022-10-22T13:57:50.506Z,100554.00
2022-10-22T14:01:42.841Z,100566.25
2022-10-22T14:09:11.666Z,100567.47
2022-10-22T14:12:26.916Z,100570.09
2022-10-22T14:15:52.603Z,100498.59
2022-10-22T14:19:14.456Z,100558.50
2022-10-22T14:22:31.813Z,100531.87
2022-10-22T14:25:53.536Z,100417.88
2022-10-22T14:29:11.510Z,100430.06
2022-10-22T14:32:47.996Z,100460.28
2022-10-22T14:36:04.770Z,100500.63
2022-10-22T14:47:52.524Z,100559.56
2022-10-22T14:51:10.965Z,100571.31
2022-10-22T14:58:32.721Z,100573.66
2022-10-22T15:01:41.163Z,100546.66
2022-10-22T15:04:49.645Z,100575.81
2022-10-22T15:08:05.709Z,100556.59
2022-10-22T15:11:12.011Z,100572.34
2022-10-22T15:14:26.567Z,100575.16
2022-10-22T15:17:28.372Z,100572.41
2022-10-22T15:20:42.700Z,100576.28
2022-10-22T15:23:51.551Z,100573.34
2022-10-22T15:27:00.275Z,100592.66
2022-10-22T15:30:14.558Z,100584.00
2022-10-22T15:33:16.592Z,100573.03
2022-10-22T15:37:04.179Z,100587.25
2022-10-22T15:40:52.567Z,100576.13
2022-10-22T15:44:24.064Z,100579.69
2022-10-22T15:47:56.778Z,100589.53
2022-10-22T15:51:51.533Z,100594.94
2022-10-22T15:55:03.125Z,100609.50
2022-10-22T15:58:14.616Z,100605.50
2022-10-22T16:01:31.741Z,100606.16
2022-10-22T16:04:39.642Z,100617.22
2022-10-22T16:07:48.179Z,100623.44
2022-10-22T16:11:02.534Z,100641.00
2022-10-22T16:14:12.607Z,100637.72
2022-10-22T16:17:21.097Z,100644.50
2022-10-22T16:20:35.574Z,100641.94
2022-10-22T16:23:37.475Z,100645.16
2022-10-22T16:26:54.575Z,100663.13
2022-10-22T16:29:56.382Z,100675.31
2022-10-22T16:33:12.620Z,100685.34
2022-10-22T16:36:17.514Z,100701.87
2022-10-22T16:39:33.567Z,100703.97
2022-10-22T16:42:44.571Z,100709.53
2022-10-22T16:45:53.224Z,100716.78
2022-10-22T16:49:02.614Z,100722.22
2022-10-22T16:52:17.602Z,100724.06
2022-10-22T16:55:32.584Z,100731.28
2022-10-22T16:58:47.455Z,100722.50
2022-10-22T17:01:55.638Z,100727.94
2022-10-22T17:05:11.557Z,100730.62
2022-10-22T17:08:19.644Z,100726.28
2022-10-22T17:11:28.368Z,100699.19
2022-10-22T17:14:42.735Z,100739.44
2022-10-22T17:17:51.584Z,100743.00
2022-10-22T17:21:01.161Z,100731.69
2022-10-22T17:24:16.569Z,100728.37
2022-10-22T17:27:18.612Z,100723.12
2022-10-22T17:30:34.684Z,100724.38
2022-10-22T17:33:43.563Z,100727.97
2022-10-22T17:36:55.200Z,100737.56
2022-10-22T17:40:04.619Z,100731.56
2022-10-22T17:43:14.507Z,100753.47
2022-10-22T17:46:27.578Z,100751.03
2022-10-22T17:49:42.863Z,100746.03
2022-10-22T17:52:51.666Z,100755.25
2022-10-22T17:56:08.571Z,100774.66
2022-10-22T17:59:19.648Z,100769.31
2022-10-22T18:02:34.660Z,100761.44
2022-10-22T18:05:36.544Z,100756.44
2022-10-22T18:11:54.827Z,100770.62
2022-10-22T18:15:09.654Z,100780.34
2022-10-22T18:18:11.803Z,100785.72
2022-10-22T18:21:28.658Z,100793.00
2022-10-22T18:24:37.616Z,100771.09
2022-10-22T18:27:47.904Z,100740.22
2022-10-22T18:31:04.604Z,100788.91
2022-10-22T18:34:14.720Z,100789.72
2022-10-22T18:37:24.607Z,100793.16
2022-10-22T18:40:34.547Z,100810.06
2022-10-22T18:43:43.608Z,100810.22
2022-10-22T18:46:52.404Z,100821.78
2022-10-22T18:50:07.675Z,100831.59
2022-10-22T18:53:17.378Z,100823.75
2022-10-22T18:56:27.703Z,100807.81
2022-10-22T18:59:49.624Z,100821.16
2022-10-22T19:03:04.915Z,100818.62
2022-10-22T19:06:15.721Z,100817.91
2022-10-22T19:09:23.704Z,100798.78
2022-10-22T19:12:39.607Z,100815.66
2022-10-22T19:15:48.348Z,100838.66
2022-10-22T19:19:10.666Z,100816.81
2022-10-22T19:22:20.141Z,100822.34
2022-10-22T19:25:34.612Z,100829.72
2022-10-22T19:28:50.612Z,100829.91
2022-10-22T19:31:59.821Z,100839.00
2022-10-22T19:35:08.630Z,100834.75
2022-10-22T19:38:17.346Z,100837.00
2022-10-22T19:41:27.614Z,100833.78
2022-10-22T19:44:37.278Z,100856.12
2022-10-22T19:47:46.648Z,100852.72
2022-10-22T19:51:04.975Z,100862.56
2022-10-22T19:54:19.619Z,100822.44
2022-10-22T19:57:29.393Z,100874.09
2022-10-22T20:00:39.694Z,100868.19
2022-10-22T20:03:51.497Z,100856.81
2022-10-22T20:07:01.640Z,100868.34
2022-10-22T20:10:16.631Z,100888.94
2022-10-22T20:13:25.494Z,100896.06
2022-10-22T20:16:35.615Z,100896.09
2022-10-22T20:19:44.791Z,100898.50
2022-10-22T20:23:00.697Z,100895.44
2022-10-22T20:26:16.683Z,100888.37
2022-10-22T20:29:18.492Z,100885.06
2022-10-22T20:32:32.680Z,100900.88
2022-10-22T20:35:48.865Z,100905.09
2022-10-22T20:39:04.964Z,100892.84
2022-10-22T20:42:13.632Z,100901.78
2022-10-22T20:45:23.396Z,100904.50
2022-10-22T20:48:32.659Z,100903.62
2022-10-22T20:51:47.899Z,100914.09
2022-10-22T20:54:55.711Z,100915.03
2022-10-22T20:58:04.452Z,100913.34
2022-10-22T21:01:12.675Z,100934.69
2022-10-22T21:04:28.684Z,100936.38
2022-10-22T21:07:43.950Z,100924.28
2022-10-22T21:10:58.718Z,100934.03
2022-10-22T21:14:00.328Z,100934.94
2022-10-22T21:17:14.675Z,100934.06
2022-10-22T21:20:17.858Z,100925.41
2022-10-22T21:23:34.639Z,100935.97
2022-10-22T21:26:43.703Z,100924.50
2022-10-22T21:29:58.650Z,100909.88
2022-10-22T21:33:07.258Z,100939.84
2022-10-22T21:36:23.189Z,100936.56
2022-10-22T21:39:24.932Z,100892.78
2022-10-22T21:42:39.648Z,100929.81
2022-10-22T21:45:41.408Z,100939.44
2022-10-22T21:49:00.695Z,100925.37
2022-10-22T21:52:15.712Z,100913.06
2022-10-22T21:55:24.632Z,100893.09
2022-10-22T21:58:42.667Z,100928.91
2022-10-22T22:01:51.195Z,100920.94
2022-10-22T22:05:05.651Z,100900.72
2022-10-22T22:08:13.715Z,100908.47
2022-10-22T22:11:24.951Z,100927.88
2022-10-22T22:14:32.720Z,100928.78
2022-10-22T22:17:45.856Z,100932.28
2022-10-22T22:20:53.655Z,100936.78
2022-10-22T22:24:02.469Z,100933.28
2022-10-22T22:27:10.753Z,100925.53
2022-10-22T22:30:19.310Z,100952.94
2022-10-22T22:33:28.655Z,100925.69
2022-10-22T22:36:46.690Z,100960.09
2022-10-22T22:39:48.488Z,100935.56
2022-10-22T22:43:02.705Z,100957.62
2022-10-22T22:46:06.910Z,100961.22
2022-10-22T22:49:21.739Z,100944.31
2022-10-22T22:52:23.374Z,100957.28
2022-10-22T22:55:37.660Z,100941.38
2022-10-22T22:58:40.958Z,100949.50
2022-10-22T23:01:56.709Z,100974.25
2022-10-22T23:04:58.310Z,100985.03
2022-10-22T23:08:14.663Z,100987.88
2022-10-22T23:11:22.700Z,100991.28
2022-10-22T23:14:37.679Z,100985.97
2022-10-22T23:17:45.687Z,100983.16
2022-10-22T23:20:54.402Z,100975.47
2022-10-22T23:24:05.672Z,100990.47
2022-10-22T23:27:20.683Z,100975.63
2022-10-22T23:30:28.683Z,100983.56
2022-10-22T23:33:37.180Z,100980.94
2022-10-22T23:36:52.670Z,100990.66
2022-10-22T23:40:00.671Z,100983.66
2022-10-22T23:43:16.767Z,100990.50
2022-10-22T23:46:18.435Z,100981.72
2022-10-22T23:49:32.696Z,100990.47
2022-10-22T23:52:34.300Z,100997.72
2022-10-22T23:55:49.734Z,101001.22
2022-10-22T23:58:52.171Z,100982.69
